Time;durP1;ratioP1;P1;durP2;ratioP2;P2;SDS_P1;SDS_P2;PMS_P1;PMS_P2;Temp;Humidity;BMP_temperature;BMP_pressure;BME280_temperature;BME280_humidity;BME280_pressure;Samples;Min_cycle;Max_cycle;Signal;HPM_P1;HPM_P2
2022/03/24 00:02:06;;;;;;;34.80;23.00;;;;;;;4.59;55.67;102186.44;4985626;28;20030;-86
2022/03/24 00:04:31;;;;;;;34.00;23.70;;;;;;;4.54;55.59;102185.38;4968648;28;20035;-87
2022/03/24 00:06:57;;;;;;;35.70;25.02;;;;;;;4.50;55.77;102189.56;4969411;28;20181;-86
2022/03/24 00:09:22;;;;;;;34.88;23.45;;;;;;;4.46;55.56;102188.56;4971475;28;20026;-86
2022/03/24 00:11:47;;;;;;;32.30;22.73;;;;;;;4.40;55.55;102175.25;4984737;28;20026;-86
2022/03/24 00:14:13;;;;;;;38.05;24.65;;;;;;;4.38;55.91;102179.53;4988975;28;20023;-86
2022/03/24 00:16:38;;;;;;;36.92;24.83;;;;;;;4.36;55.93;102178.56;4985211;28;20022;-85
2022/03/24 00:19:03;;;;;;;38.15;24.95;;;;;;;4.31;55.87;102167.03;4970625;28;20096;-85
2022/03/24 00:21:29;;;;;;;36.03;23.80;;;;;;;4.31;56.00;102182.72;4971189;28;20026;-86
2022/03/24 00:23:54;;;;;;;36.10;23.40;;;;;;;4.26;56.03;102179.03;4973698;28;20056;-84
2022/03/24 00:26:20;;;;;;;34.70;22.58;;;;;;;4.22;55.94;102178.00;4973769;28;20037;-85
2022/03/24 00:28:45;;;;;;;34.85;23.95;;;;;;;4.18;56.26;102176.09;4990580;28;20041;-85
2022/03/24 00:31:11;;;;;;;36.47;24.20;;;;;;;4.16;56.16;102175.13;4990838;28;20026;-85
2022/03/24 00:33:38;;;;;;;41.50;24.95;;;;;;;4.13;56.22;102177.63;4974615;28;20030;-85
2022/03/24 00:36:04;;;;;;;37.58;24.48;;;;;;;4.09;56.24;102176.59;4973968;28;20143;-86
2022/03/24 00:38:29;;;;;;;35.63;23.42;;;;;;;4.05;56.30;102169.47;4974029;28;20094;-86
2022/03/24 00:40:55;;;;;;;34.58;25.17;;;;;;;4.01;56.33;102167.56;4974647;28;20028;-85
2022/03/24 00:43:21;;;;;;;34.72;22.55;;;;;;;4.00;56.11;102168.38;4974188;28;20105;-85
2022/03/24 00:45:46;;;;;;;37.45;23.70;;;;;;;3.94;56.25;102167.28;4972401;28;20951;-86
2022/03/24 00:48:12;;;;;;;36.95;24.17;;;;;;;3.91;56.67;102164.56;4989981;28;20032;-86
2022/03/24 00:50:37;;;;;;;32.65;23.65;;;;;;;3.86;56.39;102158.22;4972891;28;20058;-85
2022/03/24 00:53:03;;;;;;;35.03;23.30;;;;;;;3.84;56.25;102165.13;4989747;28;20027;-86
2022/03/24 00:55:29;;;;;;;35.10;23.85;;;;;;;3.75;56.51;102155.19;4972514;28;20652;-86
2022/03/24 00:57:55;;;;;;;37.42;24.33;;;;;;;3.79;56.42;102156.19;4974512;28;20034;-86
2022/03/24 01:00:22;;;;;;;34.83;23.95;;;;;;;3.73;56.31;102162.03;4972548;28;20030;-85
2022/03/24 01:02:49;;;;;;;36.40;23.48;;;;;;;3.70;56.34;102165.41;4973348;28;20019;-86
2022/03/24 01:05:16;;;;;;;35.72;22.77;;;;;;;3.65;56.73;102161.72;4984102;28;20027;-86
2022/03/24 01:07:42;;;;;;;39.92;24.80;;;;;;;3.62;56.97;102156.34;5005608;28;20026;-85
2022/03/24 01:10:08;;;;;;;34.38;23.13;;;;;;;3.59;57.02;102164.03;4984363;28;20035;-85
2022/03/24 01:12:34;;;;;;;36.13;23.88;;;;;;;3.55;57.01;102164.75;4972235;28;20032;-86
2022/03/24 01:14:59;;;;;;;34.33;23.50;;;;;;;3.53;56.89;102161.19;4989862;28;20466;-86
2022/03/24 01:17:26;;;;;;;36.28;24.25;;;;;;;3.50;56.80;102163.66;4972781;28;20030;-86
2022/03/24 01:19:53;;;;;;;33.05;24.38;;;;;;;3.46;57.13;102160.91;4973721;28;20070;-86
2022/03/24 01:22:19;;;;;;;33.95;23.48;;;;;;;3.44;56.88;102148.63;4972099;28;20022;-86
2022/03/24 01:24:45;;;;;;;36.00;23.75;;;;;;;3.40;56.59;102155.41;4971668;28;20053;-86
2022/03/24 01:27:11;;;;;;;33.90;23.13;;;;;;;3.37;56.71;102154.38;4990122;28;20061;-86
2022/03/24 01:29:36;;;;;;;38.63;25.52;;;;;;;3.33;56.93;102150.72;4973946;28;20230;-85
2022/03/24 01:32:03;;;;;;;36.20;24.17;;;;;;;3.31;56.81;102147.19;4972983;28;20041;-84
2022/03/24 01:34:29;;;;;;;38.00;24.48;;;;;;;3.29;57.02;102157.53;4989302;28;20044;-84
2022/03/24 01:36:55;;;;;;;33.42;23.30;;;;;;;3.26;56.85;102153.88;4988165;28;20030;-85
2022/03/24 01:39:20;;;;;;;36.95;24.70;;;;;;;3.25;56.84;102157.31;4989824;28;20539;-85
2022/03/24 01:41:46;;;;;;;36.20;23.83;;;;;;;3.20;56.89;102154.50;4973304;28;20489;-86
2022/03/24 01:44:13;;;;;;;37.45;23.58;;;;;;;3.16;56.96;102153.47;4973095;28;20037;-86
2022/03/24 01:46:53;;;;;;;37.22;24.50;;;;;;;3.12;57.15;102141.13;4989351;28;20042;-86
2022/03/24 01:49:18;;;;;;;37.72;24.05;;;;;;;3.11;56.88;102155.00;4988543;28;20026;-86
2022/03/24 01:51:43;;;;;;;38.03;25.02;;;;;;;3.06;57.26;102146.97;4987710;28;20097;-86
2022/03/24 01:54:10;;;;;;;34.67;24.05;;;;;;;3.02;57.14;102152.84;4987932;28;20077;-85
2022/03/24 01:56:35;;;;;;;36.70;24.27;;;;;;;3.01;57.38;102148.47;4973666;28;20049;-85
2022/03/24 01:59:01;;;;;;;40.67;25.48;;;;;;;2.97;57.56;102143.03;4974354;28;20060;-86
2022/03/24 02:01:35;;;;;;;35.10;23.50;;;;;;;2.97;57.56;102150.88;4973150;28;20034;-85
2022/03/24 02:04:04;;;;;;;40.10;24.15;;;;;;;2.92;57.55;102143.72;4990388;28;20587;-86
2022/03/24 02:06:29;;;;;;;38.03;23.52;;;;;;;2.90;57.58;102144.47;4973437;28;20022;-85
2022/03/24 02:08:56;;;;;;;40.15;24.05;;;;;;;2.87;57.73;102150.41;4987479;28;20389;-85
2022/03/24 02:11:21;;;;;;;37.10;24.77;;;;;;;2.82;57.66;102144.09;5001695;28;20034;-86
2022/03/24 02:13:47;;;;;;;40.20;24.63;;;;;;;2.81;57.57;102151.03;4984939;28;20026;-85
2022/03/24 02:16:12;;;;;;;38.90;25.58;;;;;;;2.78;57.60;102139.56;4971419;28;20061;-85
2022/03/24 02:18:38;;;;;;;39.80;23.85;;;;;;;2.76;57.76;102141.19;4989575;28;20018;-85
2022/03/24 02:21:03;;;;;;;36.72;24.25;;;;;;;2.72;57.84;102139.28;4972997;28;20030;-85
2022/03/24 02:23:29;;;;;;;37.80;23.80;;;;;;;2.69;57.74;102140.94;4972725;28;20109;-86
2022/03/24 02:25:55;;;;;;;38.28;23.40;;;;;;;2.69;57.79;102140.03;4972432;28;20477;-85
2022/03/24 02:28:22;;;;;;;39.65;24.05;;;;;;;2.65;58.00;102144.22;5005587;28;20554;-86
2022/03/24 02:30:49;;;;;;;36.38;22.80;;;;;;;2.62;57.84;102144.06;4988381;28;20105;-85
2022/03/24 02:33:14;;;;;;;34.53;23.45;;;;;;;2.61;58.01;102147.50;4970454;28;20125;-85
2022/03/24 02:35:40;;;;;;;37.83;24.42;;;;;;;2.58;57.93;102142.16;4989624;28;20079;-86
2022/03/24 02:38:05;;;;;;;41.53;24.85;;;;;;;2.55;58.02;102144.59;4974098;28;20030;-85
2022/03/24 02:40:32;;;;;;;36.88;24.52;;;;;;;2.52;58.15;102139.22;4988419;28;20105;-85
2022/03/24 02:42:57;;;;;;;37.78;25.45;;;;;;;2.51;57.83;102146.19;4969938;28;20117;-85
2022/03/24 02:45:22;;;;;;;35.70;24.15;;;;;;;2.48;57.73;102146.03;4975009;28;20142;-84
2022/03/24 02:47:48;;;;;;;36.45;25.10;;;;;;;2.46;57.93;102146.78;4969207;28;20034;-85
2022/03/24 02:50:14;;;;;;;36.63;23.88;;;;;;;2.42;57.90;102138.81;4971872;28;20023;-84
2022/03/24 02:52:39;;;;;;;39.38;25.02;;;;;;;2.41;57.98;102138.72;4968259;28;20045;-84
2022/03/24 02:55:05;;;;;;;38.08;24.42;;;;;;;2.37;58.21;102132.47;4973880;28;20022;-85
2022/03/24 02:57:30;;;;;;;35.75;23.95;;;;;;;2.36;57.86;102146.31;4971665;28;20038;-84
2022/03/24 02:59:56;;;;;;;37.53;25.13;;;;;;;2.34;57.84;102142.75;4970341;28;20045;-84
2022/03/24 03:02:21;;;;;;;38.40;24.45;;;;;;;2.33;57.93;102137.47;4985287;28;20022;-85
2022/03/24 03:04:53;;;;;;;36.78;23.40;;;;;;;2.31;57.99;102146.06;4972766;28;20038;-85
2022/03/24 03:07:20;;;;;;;35.80;23.42;;;;;;;2.30;58.24;102138.19;4970433;28;20026;-85
2022/03/24 03:09:45;;;;;;;37.53;23.83;;;;;;;2.27;57.81;102135.47;4985761;28;20553;-85
2022/03/24 03:12:11;;;;;;;38.40;22.95;;;;;;;2.25;58.20;102150.09;4970922;28;20117;-85
2022/03/24 03:14:38;;;;;;;35.78;22.75;;;;;;;2.22;57.70;102143.03;4984793;28;20077;-84
2022/03/24 03:17:04;;;;;;;34.80;22.80;;;;;;;2.18;58.10;102143.72;4971233;28;20034;-84
2022/03/24 03:19:29;;;;;;;34.95;23.60;;;;;;;2.20;58.15;102149.00;4968133;28;20433;-85
2022/03/24 03:21:55;;;;;;;30.65;21.77;;;;;;;2.16;57.90;102146.22;4986463;28;20481;-86
2022/03/24 03:24:22;;;;;;;35.50;23.25;;;;;;;2.14;58.25;102150.44;4969510;28;20112;-85
2022/03/24 03:26:48;;;;;;;32.97;22.10;;;;;;;2.13;57.96;102147.81;4972414;28;20019;-85
2022/03/24 03:29:14;;;;;;;39.13;24.10;;;;;;;2.08;58.03;102144.97;4970608;28;20532;-85
2022/03/24 03:31:39;;;;;;;36.88;23.58;;;;;;;2.07;58.28;102148.38;4984914;28;20065;-85
2022/03/24 03:34:07;;;;;;;35.72;23.13;;;;;;;2.05;58.27;102139.59;4987346;28;20473;-85
2022/03/24 03:36:32;;;;;;;34.15;22.70;;;;;;;2.05;58.01;102144.81;4973521;28;20034;-88
2022/03/24 03:38:58;;;;;;;33.80;22.73;;;;;;;1.97;58.38;102135.72;4975158;28;20026;-86
2022/03/24 03:41:23;;;;;;;33.97;23.38;;;;;;;2.02;58.07;102145.56;4990845;28;20042;-85
2022/03/24 03:43:49;;;;;;;36.67;23.33;;;;;;;1.99;58.24;102149.69;4975049;28;20030;-88
2022/03/24 03:46:15;;;;;;;38.35;23.13;;;;;;;1.98;58.05;102147.91;4975334;28;20076;-88
2022/03/24 03:48:41;;;;;;;33.60;20.83;;;;;;;1.96;57.95;102149.56;4976099;28;20046;-88
2022/03/24 03:51:08;;;;;;;36.75;23.70;;;;;;;1.94;58.27;102145.97;4991932;28;20037;-88
2022/03/24 03:53:34;;;;;;;36.78;23.48;;;;;;;1.92;58.43;102143.28;4991222;28;20073;-88
2022/03/24 03:56:00;;;;;;;36.20;22.45;;;;;;;1.90;58.18;102148.41;4993075;28;20041;-88
2022/03/24 03:58:25;;;;;;;35.55;23.95;;;;;;;1.89;58.44;102148.34;4974852;28;20478;-85
2022/03/24 04:00:53;;;;;;;33.15;21.77;;;;;;;1.85;58.14;102142.09;4989218;28;20034;-85
2022/03/24 04:03:38;;;;;;;35.17;22.20;;;;;;;1.85;58.02;102149.91;4972796;28;20079;-85
2022/03/24 04:06:06;;;;;;;34.25;22.23;;;;;;;1.79;58.00;102142.69;4988828;28;20037;-85
2022/03/24 04:08:33;;;;;;;34.22;22.33;;;;;;;1.82;58.17;102149.75;4969979;28;20050;-85
2022/03/24 04:10:59;;;;;;;37.47;23.30;;;;;;;1.79;58.42;102153.09;4991815;28;20611;-85
2022/03/24 04:13:24;;;;;;;37.13;22.30;;;;;;;1.77;58.05;102143.44;4969735;28;20113;-85
2022/03/24 04:15:51;;;;;;;32.97;21.63;;;;;;;1.76;58.04;102141.63;4973365;28;20022;-85
2022/03/24 04:18:17;;;;;;;33.38;22.15;;;;;;;1.73;58.15;102147.56;5004587;28;20084;-84
2022/03/24 04:20:42;;;;;;;32.67;22.15;;;;;;;1.71;58.32;102140.50;4985359;28;20076;-85
2022/03/24 04:23:08;;;;;;;35.40;23.67;;;;;;;1.69;58.50;102150.81;4986622;28;20050;-84
2022/03/24 04:25:34;;;;;;;34.80;22.45;;;;;;;1.69;58.21;102156.03;4973035;28;20075;-85
2022/03/24 04:28:00;;;;;;;36.30;22.50;;;;;;;1.65;58.14;102157.59;4975214;28;20029;-85
2022/03/24 04:30:26;;;;;;;40.13;23.42;;;;;;;1.65;58.23;102159.28;4973214;28;20030;-85
2022/03/24 04:32:52;;;;;;;36.10;22.65;;;;;;;1.63;58.47;102163.50;4987685;28;20030;-84
2022/03/24 04:35:17;;;;;;;32.22;21.30;;;;;;;1.60;58.47;102155.56;4990266;28;20029;-84
2022/03/24 04:37:43;;;;;;;32.67;21.75;;;;;;;1.58;58.16;102165.88;4973308;28;20045;-84
2022/03/24 04:40:11;;;;;;;30.58;21.20;;;;;;;1.56;58.37;102164.91;4972173;28;20034;-85
2022/03/24 04:42:37;;;;;;;34.70;20.67;;;;;;;1.53;58.40;102169.94;4989736;28;20029;-85
2022/03/24 04:45:03;;;;;;;34.42;21.48;;;;;;;1.50;58.25;102159.41;4974291;28;20461;-85
2022/03/24 04:47:28;;;;;;;32.47;22.42;;;;;;;1.48;58.12;102156.72;4971150;28;20079;-85
2022/03/24 04:49:54;;;;;;;38.90;23.58;;;;;;;1.48;58.25;102166.22;4973037;28;20425;-85
2022/03/24 04:52:19;;;;;;;33.58;22.73;;;;;;;1.46;58.10;102168.72;4988234;28;20058;-85
2022/03/24 04:54:45;;;;;;;34.85;22.52;;;;;;;1.44;58.26;102164.25;4987581;28;20419;-84
2022/03/24 04:57:11;;;;;;;34.15;22.90;;;;;;;1.41;58.33;102170.19;4972636;28;20045;-85
2022/03/24 04:59:36;;;;;;;37.35;23.23;;;;;;;1.39;58.82;102157.13;4972319;28;20524;-86
2022/03/24 05:02:02;;;;;;;36.75;22.95;;;;;;;1.36;58.22;102158.63;4974496;28;20073;-86
2022/03/24 05:04:27;;;;;;;35.83;21.67;;;;;;;1.36;58.40;102162.16;4990041;28;20023;-86
2022/03/24 05:06:53;;;;;;;41.00;23.38;;;;;;;1.34;58.09;102169.00;4990598;28;20158;-86
2022/03/24 05:09:19;;;;;;;34.17;21.98;;;;;;;1.32;58.64;102164.50;4992138;28;20053;-86
2022/03/24 05:11:44;;;;;;;36.45;23.23;;;;;;;1.32;58.67;102164.50;4987711;28;20038;-85
2022/03/24 05:14:10;;;;;;;38.08;22.75;;;;;;;1.29;58.41;102167.84;4971462;28;20031;-85
2022/03/24 05:16:36;;;;;;;34.10;22.30;;;;;;;1.28;58.69;102163.44;4970541;28;20034;-86
2022/03/24 05:19:01;;;;;;;34.55;21.38;;;;;;;1.27;58.72;102174.66;4987336;28;20033;-86
2022/03/24 05:21:27;;;;;;;33.80;22.02;;;;;;;1.26;58.62;102176.38;4972220;28;20041;-86
2022/03/24 05:23:53;;;;;;;38.70;22.38;;;;;;;1.21;58.89;102164.84;4987600;28;20038;-85
2022/03/24 05:26:20;;;;;;;32.67;22.10;;;;;;;1.21;58.80;102163.94;4988325;28;20374;-86
2022/03/24 05:28:46;;;;;;;34.13;21.63;;;;;;;1.20;58.85;102170.81;4973042;28;20121;-85
2022/03/24 05:31:12;;;;;;;34.15;21.98;;;;;;;1.19;58.59;102168.13;4970817;28;20148;-85
2022/03/24 05:33:37;;;;;;;36.00;22.80;;;;;;;1.15;58.46;102159.28;4972090;28;20964;-85
2022/03/24 05:36:02;;;;;;;36.38;22.77;;;;;;;1.14;58.72;102163.59;4972184;28;20026;-85
2022/03/24 05:38:28;;;;;;;35.30;21.20;;;;;;;1.15;58.69;102173.19;4988912;28;20433;-86
2022/03/24 05:40:54;;;;;;;34.13;21.73;;;;;;;1.11;58.94;102166.06;4988678;28;20037;-86
2022/03/24 05:43:19;;;;;;;41.50;22.70;;;;;;;1.11;58.58;102166.06;4973785;28;20030;-85
2022/03/24 05:45:44;;;;;;;37.00;22.63;;;;;;;1.10;58.62;102164.25;4989526;28;20112;-86
2022/03/24 05:48:10;;;;;;;32.65;21.30;;;;;;;1.09;58.59;102170.25;5002913;28;20038;-85
2022/03/24 05:50:35;;;;;;;38.92;22.30;;;;;;;1.08;59.09;102176.28;4969335;28;20141;-86
2022/03/24 05:53:01;;;;;;;34.90;22.17;;;;;;;1.08;59.00;102181.47;4988391;28;20102;-86
2022/03/24 05:55:26;;;;;;;35.25;22.27;;;;;;;1.07;59.09;102171.00;4972421;28;20153;-85
2022/03/24 05:57:51;;;;;;;38.17;22.08;;;;;;;1.04;58.89;102169.13;4987652;28;20033;-85
2022/03/24 06:00:17;;;;;;;35.33;21.83;;;;;;;1.05;58.96;102176.09;4968871;28;20053;-86
2022/03/24 06:02:43;;;;;;;32.03;20.70;;;;;;;1.05;59.09;102170.00;4972748;28;20035;-86
2022/03/24 06:05:09;;;;;;;33.33;20.63;;;;;;;1.04;58.97;102174.31;4971092;28;20382;-86
2022/03/24 06:07:36;;;;;;;34.35;21.65;;;;;;;1.05;59.19;102176.09;4987174;28;20484;-87
2022/03/24 06:10:01;;;;;;;35.80;21.83;;;;;;;1.05;58.92;102175.19;4973667;28;20023;-85
2022/03/24 06:12:26;;;;;;;39.05;22.25;;;;;;;1.06;58.64;102177.00;4984573;28;20028;-86
2022/03/24 06:14:52;;;;;;;32.22;20.95;;;;;;;1.04;58.96;102182.13;4971371;28;20049;-86
2022/03/24 06:17:20;;;;;;;34.40;21.80;;;;;;;1.04;58.96;102187.31;4969348;28;20037;-86
2022/03/24 06:19:47;;;;;;;41.03;22.90;;;;;;;1.04;58.91;102187.31;4986920;28;20041;-86
2022/03/24 06:22:12;;;;;;;32.00;20.92;;;;;;;1.06;58.63;102182.22;4970438;28;20109;-86
2022/03/24 06:24:38;;;;;;;35.42;20.80;;;;;;;1.05;58.67;102186.50;4971957;28;20432;-86
2022/03/24 06:27:03;;;;;;;34.25;21.98;;;;;;;1.06;58.92;102185.69;4973214;28;20041;-86
2022/03/24 06:29:29;;;;;;;34.38;21.83;;;;;;;1.08;59.08;102191.88;4984169;28;20037;-86
2022/03/24 06:31:54;;;;;;;36.60;22.55;;;;;;;1.08;58.91;102188.38;4971118;28;20026;-86
2022/03/24 06:34:19;;;;;;;38.90;22.52;;;;;;;1.10;58.78;102184.16;4972769;28;20025;-86
2022/03/24 06:36:45;;;;;;;33.13;21.90;;;;;;;1.08;58.79;102184.06;4984518;28;21324;-86
2022/03/24 06:39:10;;;;;;;35.65;23.05;;;;;;;1.10;59.13;102189.34;4969464;28;20030;-86
2022/03/24 06:41:36;;;;;;;28.63;19.85;;;;;;;1.13;58.84;102185.19;5003128;28;20030;-86
2022/03/24 06:44:05;;;;;;;34.80;22.65;;;;;;;1.16;59.18;102187.06;4988939;28;20659;-87
2022/03/24 06:46:30;;;;;;;36.85;22.45;;;;;;;1.19;59.08;102195.03;4971834;28;20037;-86
2022/03/24 06:48:56;;;;;;;36.88;22.70;;;;;;;1.22;58.90;102196.91;4969990;28;20444;-86
2022/03/24 06:51:21;;;;;;;30.33;21.77;;;;;;;1.24;59.01;102196.16;4970539;28;20388;-86
2022/03/24 06:53:47;;;;;;;35.28;22.52;;;;;;;1.28;58.90;102195.56;4970596;28;20022;-87
2022/03/24 06:56:12;;;;;;;34.75;21.15;;;;;;;1.31;59.07;102200.03;4986947;28;20040;-86
2022/03/24 06:58:38;;;;;;;36.85;22.33;;;;;;;1.33;58.85;102187.97;4969491;28;20023;-87
2022/03/24 07:01:03;;;;;;;37.95;21.88;;;;;;;1.40;58.94;102208.28;4968567;28;20423;-87
2022/03/24 07:03:29;;;;;;;37.80;22.15;;;;;;;1.41;59.52;102202.28;4968374;28;20038;-87
2022/03/24 07:05:54;;;;;;;37.75;22.38;;;;;;;1.50;59.44;102198.41;4966740;28;20392;-86
2022/03/24 07:08:19;;;;;;;32.88;22.05;;;;;;;1.53;59.33;102195.94;4965730;28;20026;-87
2022/03/24 07:10:46;;;;;;;31.98;22.63;;;;;;;1.60;59.14;102198.06;4999804;28;20026;-87
2022/03/24 07:13:11;;;;;;;35.92;23.00;;;;;;;1.66;59.01;102197.47;4983341;28;20481;-87
2022/03/24 07:15:36;;;;;;;36.05;23.50;;;;;;;1.67;59.26;102200.16;4980249;28;20030;-87
2022/03/24 07:18:02;;;;;;;41.20;23.80;;;;;;;1.75;59.14;102202.28;4968536;28;20052;-87
2022/03/24 07:20:28;;;;;;;35.60;23.45;;;;;;;1.81;59.18;102192.19;4966871;28;20022;-87
2022/03/24 07:22:57;;;;;;;34.17;22.08;;;;;;;1.86;59.07;102190.72;4969242;28;20023;-87
2022/03/24 07:25:23;;;;;;;35.55;22.42;;;;;;;1.97;59.80;102192.97;4969300;28;20023;-87
2022/03/24 07:27:49;;;;;;;34.20;22.77;;;;;;;2.04;59.65;102200.28;4970826;28;20030;-87
2022/03/24 07:30:14;;;;;;;36.55;23.83;;;;;;;2.12;59.38;102196.34;4986439;28;20540;-87
2022/03/24 07:32:41;;;;;;;39.60;24.88;;;;;;;2.21;60.12;102198.53;4986784;28;20022;-87
2022/03/24 07:35:08;;;;;;;36.40;23.23;;;;;;;2.30;60.01;102203.28;4972567;28;20022;-87
2022/03/24 07:37:34;;;;;;;40.92;24.08;;;;;;;2.39;60.48;102201.16;4973159;28;20101;-87
2022/03/24 07:39:59;;;;;;;37.53;23.50;;;;;;;2.48;60.17;102202.41;4987344;28;20436;-87
2022/03/24 07:42:24;;;;;;;44.13;24.02;;;;;;;2.56;60.35;102201.06;4989367;28;20026;-87
2022/03/24 07:44:50;;;;;;;42.85;25.08;;;;;;;2.66;60.31;102198.09;4993127;28;20036;-87
2022/03/24 07:47:16;;;;;;;41.67;24.15;;;;;;;2.72;59.60;102194.91;4973444;28;20106;-87
2022/03/24 07:49:41;;;;;;;40.90;24.67;;;;;;;2.84;59.91;102197.22;4990147;28;20030;-88
2022/03/24 07:52:12;;;;;;;37.85;24.25;;;;;;;2.94;59.91;102199.41;4986337;28;20763;-87
2022/03/24 07:54:55;;;;;;;42.25;25.00;;;;;;;3.07;59.39;102210.44;4970885;28;20018;-88
2022/03/24 07:57:22;;;;;;;38.95;24.77;;;;;;;3.15;59.33;102198.66;5015399;28;20034;-87
2022/03/24 07:59:47;;;;;;;40.78;24.80;;;;;;;3.23;59.62;102198.97;4988570;28;20109;-88
2022/03/24 08:02:12;;;;;;;36.25;24.73;;;;;;;3.34;58.95;102199.50;4988322;28;20061;-86
2022/03/24 08:04:38;;;;;;;44.08;26.25;;;;;;;3.44;58.77;102200.78;4996856;28;20524;-87
2022/03/24 08:07:04;;;;;;;39.47;24.35;;;;;;;3.55;58.60;102198.66;4987092;28;20058;-86
2022/03/24 08:09:31;;;;;;;38.00;23.92;;;;;;;3.59;58.51;102183.22;4987331;28;20034;-86
2022/03/24 08:11:56;;;;;;;43.55;25.42;;;;;;;3.74;58.75;102195.16;5004397;28;20022;-88
2022/03/24 08:14:21;;;;;;;38.63;23.80;;;;;;;3.92;57.86;102197.66;4981718;28;20065;-87
2022/03/24 08:16:47;;;;;;;37.22;24.23;;;;;;;4.04;59.64;102188.56;4981149;28;20034;-88
2022/03/24 08:19:14;;;;;;;39.63;26.27;;;;;;;4.14;58.56;102190.75;4983825;28;20046;-88
2022/03/24 08:21:39;;;;;;;42.03;25.30;;;;;;;4.27;57.92;102193.88;4986275;28;20034;-87
2022/03/24 08:24:05;;;;;;;38.60;25.13;;;;;;;4.37;58.08;102188.22;4986494;28;20033;-87
2022/03/24 08:26:30;;;;;;;37.08;24.40;;;;;;;4.55;57.71;102195.00;4983151;28;20030;-88
2022/03/24 08:28:57;;;;;;;36.53;24.67;;;;;;;4.64;57.85;102198.00;4982418;28;20069;-88
2022/03/24 08:31:22;;;;;;;39.47;24.27;;;;;;;4.79;57.38;102194.19;4982562;28;20030;-87
2022/03/24 08:33:48;;;;;;;37.15;24.25;;;;;;;4.90;57.20;102192.00;4983274;28;20022;-86
2022/03/24 08:36:13;;;;;;;42.70;25.02;;;;;;;5.05;57.43;102195.22;5000882;28;20026;-88
2022/03/24 08:38:39;;;;;;;48.33;26.13;;;;;;;5.19;58.62;102195.72;5002040;28;20026;-87
2022/03/24 08:41:04;;;;;;;44.03;26.33;;;;;;;5.38;58.43;102197.28;5004570;28;20027;-86
2022/03/24 08:43:29;;;;;;;42.72;23.98;;;;;;;5.47;57.54;102193.25;5006791;28;20022;-87
2022/03/24 08:45:55;;;;;;;42.80;26.63;;;;;;;5.62;57.45;102200.75;4985909;28;20022;-87
2022/03/24 08:48:20;;;;;;;41.45;26.73;;;;;;;5.78;57.97;102197.84;5004395;28;20114;-87
2022/03/24 08:50:45;;;;;;;43.85;25.75;;;;;;;5.95;58.79;102196.66;4989630;28;20018;-86
2022/03/24 08:53:11;;;;;;;41.15;26.17;;;;;;;6.06;58.07;102191.84;4987753;28;20061;-87
2022/03/24 08:55:36;;;;;;;41.45;27.73;;;;;;;6.23;57.20;102201.16;4987692;28;20064;-88
2022/03/24 08:58:02;;;;;;;40.60;27.98;;;;;;;6.36;58.47;102201.56;4985501;28;20022;-90
2022/03/24 09:00:28;;;;;;;42.00;27.67;;;;;;;6.52;58.91;102203.84;4987205;28;20080;-87
2022/03/24 09:02:54;;;;;;;40.47;27.35;;;;;;;6.65;58.31;102194.66;5003660;28;20026;-87
2022/03/24 09:05:19;;;;;;;43.25;26.25;;;;;;;6.83;56.89;102206.53;4987952;28;20034;-88
2022/03/24 09:07:46;;;;;;;44.28;28.63;;;;;;;6.99;56.57;102196.53;4988308;28;20026;-88
2022/03/24 09:10:13;;;;;;;45.17;28.05;;;;;;;7.08;57.74;102191.56;4987060;28;20058;-87
2022/03/24 09:12:40;;;;;;;42.45;27.60;;;;;;;7.24;57.34;102199.91;5001571;28;20022;-88
2022/03/24 09:15:08;;;;;;;38.03;26.48;;;;;;;7.39;57.28;102197.72;4985655;28;20476;-87
2022/03/24 09:17:35;;;;;;;41.45;28.40;;;;;;;7.43;57.50;102196.03;4986189;28;20018;-90
2022/03/24 09:20:00;;;;;;;40.33;26.75;;;;;;;7.65;56.89;102205.44;4984429;28;20030;-87
2022/03/24 09:22:25;;;;;;;46.33;27.98;;;;;;;7.84;56.70;102205.94;4985405;28;20030;-88
2022/03/24 09:24:51;;;;;;;38.67;26.10;;;;;;;7.96;56.00;102198.38;5002316;28;20449;-88
2022/03/24 09:27:16;;;;;;;44.95;27.65;;;;;;;8.08;55.51;102196.94;4982979;28;20026;-87
2022/03/24 09:29:42;;;;;;;41.25;26.88;;;;;;;8.26;55.29;102200.84;4990361;28;20129;-87
2022/03/24 09:32:12;;;;;;;41.78;27.05;;;;;;;8.39;55.45;102194.16;4991068;28;20019;-87
2022/03/24 09:34:40;;;;;;;40.25;26.67;;;;;;;8.58;55.04;102201.66;4990593;28;20675;-90
2022/03/24 09:37:07;;;;;;;43.78;27.42;;;;;;;8.68;54.88;102199.28;4990057;28;20117;-87
2022/03/24 09:39:32;;;;;;;41.75;27.05;;;;;;;8.86;54.95;102198.81;4991108;28;20025;-88
2022/03/24 09:42:00;;;;;;;39.05;28.00;;;;;;;8.99;54.90;102197.34;4990681;28;20027;-89
2022/03/24 09:44:26;;;;;;;37.75;25.67;;;;;;;9.13;55.02;102199.41;4980840;28;20037;-89
2022/03/24 09:46:52;;;;;;;42.83;28.30;;;;;;;9.27;54.70;102203.19;4990359;28;20030;-88
2022/03/24 09:49:17;;;;;;;41.53;27.75;;;;;;;9.33;54.39;102187.53;5006676;28;20121;-87
2022/03/24 09:51:43;;;;;;;37.03;26.73;;;;;;;9.55;53.95;102195.88;4990215;28;20046;-89
2022/03/24 09:54:10;;;;;;;44.75;28.30;;;;;;;9.71;54.01;102204.06;5003649;28;20029;-89
2022/03/24 09:56:36;;;;;;;46.30;27.27;;;;;;;9.87;53.86;102200.84;4988179;28;20026;-89
2022/03/24 09:59:02;;;;;;;41.88;27.48;;;;;;;9.99;53.65;102209.84;5000567;28;20019;-88
2022/03/24 10:01:27;;;;;;;42.13;27.20;;;;;;;10.11;53.58;102202.13;5000839;28;20034;-89
2022/03/24 10:04:03;;;;;;;38.58;27.08;;;;;;;10.34;53.36;102206.91;4988277;28;20400;-89
2022/03/24 10:06:28;;;;;;;45.47;27.77;;;;;;;10.47;53.12;102217.72;5003461;28;20030;-90
2022/03/24 10:08:53;;;;;;;44.22;28.15;;;;;;;10.57;53.05;102203.78;5000557;28;20027;-89
2022/03/24 10:11:20;;;;;;;39.70;26.80;;;;;;;10.74;52.74;102206.69;5003975;28;20022;-88
2022/03/24 10:13:50;;;;;;;40.38;26.60;;;;;;;10.84;52.92;102206.84;5003538;28;20113;-89
2022/03/24 10:16:34;;;;;;;39.53;26.27;;;;;;;11.00;52.38;102214.09;4999761;28;20051;-89
2022/03/24 10:19:01;;;;;;;42.65;27.92;;;;;;;11.15;52.29;102201.97;4994086;28;20022;-89
2022/03/24 10:21:31;;;;;;;44.83;26.70;;;;;;;11.28;52.32;102197.75;5003763;28;20042;-88
2022/03/24 10:24:00;;;;;;;40.13;26.63;;;;;;;11.40;52.32;102197.00;5003817;28;20091;-89
2022/03/24 10:26:43;;;;;;;40.88;27.00;;;;;;;11.57;52.06;102199.81;5002301;28;20400;-89
2022/03/24 10:29:10;;;;;;;40.05;27.15;;;;;;;11.72;51.60;102187.66;4996840;28;20038;-88
2022/03/24 10:31:36;;;;;;;36.65;25.95;;;;;;;11.83;51.54;102179.84;4985127;28;20030;-90
2022/03/24 10:34:03;;;;;;;38.85;27.27;;;;;;;11.95;51.84;102182.59;4996948;28;20026;-89
2022/03/24 10:36:28;;;;;;;41.42;27.42;;;;;;;12.09;51.38;102181.88;4979739;28;20130;-86
2022/03/24 10:39:04;;;;;;;40.35;28.13;;;;;;;12.19;51.09;102184.63;4987617;28;20090;-86
2022/03/24 10:41:31;;;;;;;43.08;28.42;;;;;;;12.29;50.90;102185.59;5007016;28;20105;-87
2022/03/24 10:44:18;;;;;;;38.55;25.77;;;;;;;12.48;50.75;102182.19;4989541;28;20038;-87
2022/03/24 10:46:45;;;;;;;39.72;25.98;;;;;;;12.59;51.08;102172.56;4988727;28;21270;-87
2022/03/24 10:49:28;;;;;;;39.47;26.95;;;;;;;12.72;50.57;102176.16;5004523;28;20086;-87
2022/03/24 10:51:55;;;;;;;39.88;27.45;;;;;;;12.79;50.95;102169.13;4981355;28;20061;-87
2022/03/24 10:54:38;;;;;;;41.33;27.67;;;;;;;12.92;50.44;102176.28;4985624;28;20035;-87
2022/03/24 10:57:06;;;;;;;40.28;27.33;;;;;;;13.11;50.19;102175.47;4999492;28;20023;-86
2022/03/24 10:59:44;;;;;;;45.53;26.52;;;;;;;13.26;49.72;102170.25;4986452;28;20485;-87
2022/03/24 11:02:10;;;;;;;35.38;24.90;;;;;;;13.32;49.84;102169.38;5004818;28;20388;-87
2022/03/24 11:04:35;;;;;;;38.33;27.27;;;;;;;13.39;49.71;102163.22;5002297;28;20026;-88
2022/03/24 11:07:01;;;;;;;40.00;26.75;;;;;;;13.46;49.62;102167.66;4987708;28;20030;-87
2022/03/24 11:09:30;;;;;;;35.13;25.67;;;;;;;13.66;49.80;102158.00;4979770;28;20076;-87
2022/03/24 11:12:36;;;;;;;34.70;25.55;;;;;;;13.80;49.82;102155.38;4989729;28;20042;-87
2022/03/24 11:15:04;;;;;;;35.35;25.40;;;;;;;13.85;50.10;102156.28;5002688;28;20077;-88